PWSweather.com
Personal Weather Stations
Station Observations
RAINWISE1
Rainwise Factory, Bar Harbor, ME 04609

Rainwise FactoryBar Harbor, ME 04609

Lat: 44.3897429696629, Lon: -68.2077813148499

Elevation: 29

Station Type: Rainwise MK-III

Latest ConditionsUpdated 1:44:00 PM EDT Tuesday, Aug 21, 2018
Currently Today's Max Today's Min Today's Average
Temperature 72.9°F22.7°C 73.5°F23.1°C 48.7°F9.3°C 59.2°F15.1°C
Dew Point 58.6°F14.8°C 82.3°F27.9°C 48.7°F9.3°C 56.5°F13.6°C
Winds 4.6 mph SE7.4 kmh SE 5.4 mph -8.7 kmh - - 1.9 mph 3.1 kmh
Wind Gusts 8.0 mph12.9 kmh 8.9 mph14.3 kmh - -
Humidity 61% 100% 59% 90%
Pressure 30.11 in1019.6 mb 30.20 in1022.7 mb 30.11 in1019.6 mb -
Hour Temp Dew Point Humidity Winds Wind Gusts Pressure Precip Precip Rate Daily Precip Total
01:44 PM 72.9°F22.7°C 58.6°F14.8°C 61% 4.6 mph SE7.4 kmh SE 8.0 mph12.9 kmh 30.11 in1019.6 mb 0.00 in0.0 mm 0.00 in0.0 mm 0.00 in0.0 mm
01:39 PM 72.7°F22.6°C 57.5°F14.2°C 59% 4.8 mph SSE7.7 kmh SSE 7.8 mph12.6 kmh 30.11 in1019.6 mb 0.00 in0.0 mm 0.00 in0.0 mm 0.00 in0.0 mm
01:34 PM 72.8°F22.7°C 58.1°F14.5°C 60% 4.2 mph ESE6.8 kmh ESE 8.4 mph13.5 kmh 30.11 in1019.6 mb 0.00 in0.0 mm 0.00 in0.0 mm 0.00 in0.0 mm
01:29 PM 72.4°F22.4°C 57.7°F14.3°C 60% 3.8 mph SE6.1 kmh SE 6.3 mph10.1 kmh 30.11 in1019.6 mb 0.00 in0.0 mm 0.00 in0.0 mm 0.00 in0.0 mm
01:24 PM 72.0°F22.2°C 57.8°F14.3°C 61% 5.3 mph ESE8.5 kmh ESE 8.2 mph13.2 kmh 30.11 in1019.6 mb 0.00 in0.0 mm 0.00 in0.0 mm 0.00 in0.0 mm
01:19 PM 72.2°F22.3°C 58.9°F14.9°C 63% 5.4 mph SSE8.7 kmh SSE 8.9 mph14.3 kmh 30.12 in1020.0 mb 0.00 in0.0 mm 0.00 in0.0 mm 0.00 in0.0 mm
01:14 PM 72.4°F22.4°C 59.5°F15.3°C 64% 3.8 mph SSE6.1 kmh SSE 5.9 mph9.5 kmh 30.12 in1020.0 mb 0.00 in0.0 mm 0.00 in0.0 mm 0.00 in0.0 mm
01:09 PM 72.7°F22.6°C 59.8°F15.4°C 64% 4.2 mph SSE6.8 kmh SSE 6.3 mph10.1 kmh 30.12 in1020.0 mb 0.00 in0.0 mm 0.00 in0.0 mm 0.00 in0.0 mm
01:04 PM 72.7°F22.6°C 59.8°F15.4°C 64% 4.8 mph SSE7.7 kmh SSE 7.4 mph11.9 kmh 30.12 in1020.0 mb 0.00 in0.0 mm 0.00 in0.0 mm 0.00 in0.0 mm
12:59 PM 72.0°F22.2°C 60.0°F15.6°C 66% 4.6 mph SSW7.4 kmh SSW 7.8 mph12.6 kmh 30.12 in1020.0 mb 0.00 in0.0 mm 0.00 in0.0 mm 0.00 in0.0 mm
12:54 PM 71.9°F22.2°C 60.3°F15.7°C 67% 4.6 mph S7.4 kmh S 7.2 mph11.6 kmh 30.12 in1020.0 mb 0.00 in0.0 mm 0.00 in0.0 mm 0.00 in0.0 mm
12:49 PM 71.9°F22.2°C 60.8°F16.0°C 68% 4.9 mph SE7.9 kmh SE 8.6 mph13.8 kmh 30.12 in1020.0 mb 0.00 in0.0 mm 0.00 in0.0 mm 0.00 in0.0 mm
12:44 PM 71.4°F21.9°C 60.7°F15.9°C 69% 4.5 mph S7.2 kmh S 6.5 mph10.5 kmh 30.13 in1020.3 mb 0.00 in0.0 mm 0.00 in0.0 mm 0.00 in0.0 mm
12:39 PM 71.3°F21.8°C 60.2°F15.7°C 68% 4.8 mph SSE7.7 kmh SSE 7.1 mph11.4 kmh 30.13 in1020.3 mb 0.00 in0.0 mm 0.00 in0.0 mm 0.00 in0.0 mm
12:34 PM 72.1°F22.3°C 60.1°F15.6°C 66% 4.7 mph SE7.6 kmh SE 6.6 mph10.6 kmh 30.13 in1020.3 mb 0.00 in0.0 mm 0.00 in0.0 mm 0.00 in0.0 mm
12:29 PM 72.7°F22.6°C 61.1°F16.2°C 67% 5.0 mph SSE8.0 kmh SSE 7.8 mph12.6 kmh 30.13 in1020.3 mb 0.00 in0.0 mm 0.00 in0.0 mm 0.00 in0.0 mm
12:24 PM 72.2°F22.3°C 60.2°F15.7°C 66% 3.9 mph S6.3 kmh S 6.5 mph10.5 kmh 30.14 in1020.7 mb 0.00 in0.0 mm 0.00 in0.0 mm 0.00 in0.0 mm
12:19 PM 72.5°F22.5°C 60.1°F15.6°C 65% 3.7 mph SSE6.0 kmh SSE 5.7 mph9.2 kmh 30.14 in1020.7 mb 0.00 in0.0 mm 0.00 in0.0 mm 0.00 in0.0 mm
12:14 PM 73.3°F22.9°C 59.5°F15.3°C 62% 3.9 mph SE6.3 kmh SE 6.2 mph10.0 kmh 30.14 in1020.7 mb 0.00 in0.0 mm 0.00 in0.0 mm 0.00 in0.0 mm
12:09 PM 73.4°F23.0°C 60.0°F15.6°C 63% 4.5 mph SSW7.2 kmh SSW 6.6 mph10.6 kmh 30.14 in1020.7 mb 0.00 in0.0 mm 0.00 in0.0 mm 0.00 in0.0 mm
12:04 PM 73.1°F22.8°C 59.7°F15.4°C 63% 4.5 mph SE7.2 kmh SE 6.9 mph11.1 kmh 30.14 in1020.7 mb 0.00 in0.0 mm 0.00 in0.0 mm 0.00 in0.0 mm
11:59 AM 73.2°F22.9°C 60.3°F15.7°C 64% 4.2 mph SE6.8 kmh SE 6.5 mph10.5 kmh 30.14 in1020.7 mb 0.00 in0.0 mm 0.00 in0.0 mm 0.00 in0.0 mm
11:54 AM 73.5°F23.1°C 60.6°F15.9°C 64% 3.4 mph SSE5.5 kmh SSE 5.4 mph8.7 kmh 30.15 in1021.0 mb 0.00 in0.0 mm 0.00 in0.0 mm 0.00 in0.0 mm
11:49 AM 73.0°F22.8°C 60.1°F15.6°C 64% 2.9 mph SSE4.7 kmh SSE 5.7 mph9.2 kmh 30.15 in1021.0 mb 0.00 in0.0 mm 0.00 in0.0 mm 0.00 in0.0 mm
11:44 AM 72.6°F22.6°C 60.1°F15.6°C 65% 3.7 mph S6.0 kmh S 6.1 mph9.8 kmh 30.15 in1021.0 mb 0.00 in0.0 mm 0.00 in0.0 mm 0.00 in0.0 mm
11:39 AM 72.4°F22.4°C 60.0°F15.6°C 65% 4.1 mph SSE6.6 kmh SSE 6.0 mph9.7 kmh 30.15 in1021.0 mb 0.00 in0.0 mm 0.00 in0.0 mm 0.00 in0.0 mm
11:34 AM 72.1°F22.3°C 60.1°F15.6°C 66% 3.7 mph SSE6.0 kmh SSE 6.6 mph10.6 kmh 30.15 in1021.0 mb 0.00 in0.0 mm 0.00 in0.0 mm 0.00 in0.0 mm
11:29 AM 71.7°F22.1°C 60.1°F15.6°C 67% 3.6 mph SE5.8 kmh SE 5.7 mph9.2 kmh 30.15 in1021.0 mb 0.00 in0.0 mm 0.00 in0.0 mm 0.00 in0.0 mm
11:24 AM 71.5°F21.9°C 60.8°F16.0°C 69% 3.5 mph SE5.6 kmh SE 5.4 mph8.7 kmh 30.16 in1021.3 mb 0.00 in0.0 mm 0.00 in0.0 mm 0.00 in0.0 mm
11:19 AM 71.7°F22.1°C 60.6°F15.9°C 68% 4.9 mph S7.9 kmh S 7.1 mph11.4 kmh 30.16 in1021.3 mb 0.00 in0.0 mm 0.00 in0.0 mm 0.00 in0.0 mm
11:14 AM 72.0°F22.2°C 60.8°F16.0°C 68% 4.3 mph SSW6.9 kmh SSW 6.1 mph9.8 kmh 30.16 in1021.3 mb 0.00 in0.0 mm 0.00 in0.0 mm 0.00 in0.0 mm
11:09 AM 72.1°F22.3°C 60.5°F15.8°C 67% 3.8 mph SSW6.1 kmh SSW 6.1 mph9.8 kmh 30.16 in1021.3 mb 0.00 in0.0 mm 0.00 in0.0 mm 0.00 in0.0 mm
11:04 AM 72.2°F22.3°C 60.6°F15.9°C 67% 4.3 mph SSW6.9 kmh SSW 6.2 mph10.0 kmh 30.16 in1021.3 mb 0.00 in0.0 mm 0.00 in0.0 mm 0.00 in0.0 mm
10:59 AM 72.2°F22.3°C 61.0°F16.1°C 68% 4.4 mph S7.1 kmh S 6.7 mph10.8 kmh 30.16 in1021.3 mb 0.00 in0.0 mm 0.00 in0.0 mm 0.00 in0.0 mm
10:54 AM 72.2°F22.3°C 61.5°F16.4°C 69% 4.2 mph SSW6.8 kmh SSW 5.8 mph9.3 kmh 30.17 in1021.7 mb 0.00 in0.0 mm 0.00 in0.0 mm 0.00 in0.0 mm
10:49 AM 72.2°F22.3°C 62.3°F16.8°C 71% 4.0 mph S6.4 kmh S 5.7 mph9.2 kmh 30.17 in1021.7 mb 0.00 in0.0 mm 0.00 in0.0 mm 0.00 in0.0 mm
10:44 AM 71.8°F22.1°C 61.9°F16.6°C 71% 3.4 mph SSW5.5 kmh SSW 5.3 mph8.5 kmh 30.17 in1021.7 mb 0.00 in0.0 mm 0.00 in0.0 mm 0.00 in0.0 mm
10:39 AM 71.5°F21.9°C 62.0°F16.7°C 72% 2.8 mph S4.5 kmh S 4.2 mph6.8 kmh 30.17 in1021.7 mb 0.00 in0.0 mm 0.00 in0.0 mm 0.00 in0.0 mm
10:34 AM 71.9°F22.2°C 62.8°F17.1°C 73% 4.3 mph SSE6.9 kmh SSE 6.4 mph10.3 kmh 30.17 in1021.7 mb 0.00 in0.0 mm 0.00 in0.0 mm 0.00 in0.0 mm
10:29 AM 72.0°F22.2°C 63.2°F17.3°C 74% 2.5 mph S4.0 kmh S 4.1 mph6.6 kmh 30.17 in1021.7 mb 0.00 in0.0 mm 0.00 in0.0 mm 0.00 in0.0 mm
10:24 AM 72.0°F22.2°C 64.4°F18.0°C 77% 3.1 mph SSW5.0 kmh SSW 4.5 mph7.2 kmh 30.18 in1022.0 mb 0.00 in0.0 mm 0.00 in0.0 mm 0.00 in0.0 mm
10:19 AM 71.9°F22.2°C 65.4°F18.6°C 80% 2.8 mph SSW4.5 kmh SSW 4.8 mph7.7 kmh 30.18 in1022.0 mb 0.00 in0.0 mm 0.00 in0.0 mm 0.00 in0.0 mm
10:14 AM 71.7°F22.1°C 65.2°F18.4°C 80% 0.8 mph SE1.3 kmh SE 2.1 mph3.4 kmh 30.18 in1022.0 mb 0.00 in0.0 mm 0.00 in0.0 mm 0.00 in0.0 mm
10:09 AM 71.7°F22.1°C 66.6°F19.2°C 84% 2.4 mph SE3.9 kmh SE 3.9 mph6.3 kmh 30.18 in1022.0 mb 0.00 in0.0 mm 0.00 in0.0 mm 0.00 in0.0 mm
10:04 AM 71.6°F22.0°C 67.9°F19.9°C 88% 2.3 mph S3.7 kmh S 4.2 mph6.8 kmh 30.17 in1021.7 mb 0.00 in0.0 mm 0.00 in0.0 mm 0.00 in0.0 mm
09:59 AM 71.1°F21.7°C 67.7°F19.8°C 89% 1.2 mph S1.9 kmh S 2.2 mph3.5 kmh 30.17 in1021.7 mb 0.00 in0.0 mm 0.00 in0.0 mm 0.00 in0.0 mm
09:54 AM 70.8°F21.6°C 67.4°F19.7°C 89% 2.2 mph SSE3.5 kmh SSE 3.7 mph6.0 kmh 30.18 in1022.0 mb 0.00 in0.0 mm 0.00 in0.0 mm 0.00 in0.0 mm
09:49 AM 70.7°F21.5°C 67.6°F19.8°C 90% 1.7 mph NE2.7 kmh NE 2.6 mph4.2 kmh 30.18 in1022.0 mb 0.00 in0.0 mm 0.00 in0.0 mm 0.00 in0.0 mm
09:44 AM 70.3°F21.3°C 68.2°F20.1°C 93% 1.4 mph N2.3 kmh N 2.9 mph4.7 kmh 30.18 in1022.0 mb 0.00 in0.0 mm 0.00 in0.0 mm 0.00 in0.0 mm
09:39 AM 69.6°F20.9°C 67.5°F19.7°C 93% 1.3 mph NE2.1 kmh NE 3.6 mph5.8 kmh 30.17 in1021.7 mb 0.00 in0.0 mm 0.00 in0.0 mm 0.00 in0.0 mm
09:34 AM 68.8°F20.4°C 66.4°F19.1°C 92% 1.3 mph E2.1 kmh E 2.7 mph4.3 kmh 30.18 in1022.0 mb 0.00 in0.0 mm 0.00 in0.0 mm 0.00 in0.0 mm
09:29 AM 68.0°F20.0°C 65.9°F18.8°C 93% 1.8 mph NNE2.9 kmh NNE 3.5 mph5.6 kmh 30.18 in1022.0 mb 0.00 in0.0 mm 0.00 in0.0 mm 0.00 in0.0 mm
09:24 AM 67.9°F19.9°C 65.8°F18.8°C 93% 2.2 mph ENE3.5 kmh ENE 3.7 mph6.0 kmh 30.18 in1022.0 mb 0.00 in0.0 mm 0.00 in0.0 mm 0.00 in0.0 mm
09:19 AM 67.8°F19.9°C 66.3°F19.1°C 95% 1.3 mph ENE2.1 kmh ENE 3.0 mph4.8 kmh 30.18 in1022.0 mb 0.00 in0.0 mm 0.00 in0.0 mm 0.00 in0.0 mm
09:14 AM 67.4°F19.7°C 66.5°F19.2°C 97% 1.8 mph ESE2.9 kmh ESE 3.1 mph5.0 kmh 30.18 in1022.0 mb 0.00 in0.0 mm 0.00 in0.0 mm 0.00 in0.0 mm
09:09 AM 66.9°F19.4°C 66.0°F18.9°C 97% 2.4 mph ENE3.9 kmh ENE 3.6 mph5.8 kmh 30.18 in1022.0 mb 0.00 in0.0 mm 0.00 in0.0 mm 0.00 in0.0 mm
09:04 AM 66.2°F19.0°C 65.0°F18.3°C 96% 1.2 mph ENE1.9 kmh ENE 2.1 mph3.4 kmh 30.18 in1022.0 mb 0.00 in0.0 mm 0.00 in0.0 mm 0.00 in0.0 mm
08:59 AM 66.2°F19.0°C 65.6°F18.7°C 98% 1.3 mph ENE2.1 kmh ENE 2.5 mph4.0 kmh 30.18 in1022.0 mb 0.00 in0.0 mm 0.00 in0.0 mm 0.00 in0.0 mm
08:54 AM 65.9°F18.8°C 65.6°F18.7°C 99% 2.1 mph ENE3.4 kmh ENE 2.8 mph4.5 kmh 30.18 in1022.0 mb 0.00 in0.0 mm 0.00 in0.0 mm 0.00 in0.0 mm
08:49 AM 65.3°F18.5°C 65.0°F18.3°C 99% 1.8 mph NNE2.9 kmh NNE 3.1 mph5.0 kmh 30.18 in1022.0 mb 0.00 in0.0 mm 0.00 in0.0 mm 0.00 in0.0 mm
08:44 AM 64.5°F18.1°C 64.5°F18.1°C 100% 1.6 mph NNE2.6 kmh NNE 2.7 mph4.3 kmh 30.18 in1022.0 mb 0.00 in0.0 mm 0.00 in0.0 mm 0.00 in0.0 mm
08:39 AM 63.9°F17.7°C 63.6°F17.6°C 99% 1.0 mph NE1.6 kmh NE 1.8 mph2.9 kmh 30.18 in1022.0 mb 0.00 in0.0 mm 0.00 in0.0 mm 0.00 in0.0 mm
08:34 AM 63.9°F17.7°C 63.9°F17.7°C 100% 1.2 mph ENE1.9 kmh ENE 2.5 mph4.0 kmh 30.18 in1022.0 mb 0.00 in0.0 mm 0.00 in0.0 mm 0.00 in0.0 mm
08:29 AM 63.5°F17.5°C 63.2°F17.3°C 99% 0.8 mph E1.3 kmh E 1.7 mph2.7 kmh 30.18 in1022.0 mb 0.00 in0.0 mm 0.00 in0.0 mm 0.00 in0.0 mm
08:24 AM 62.7°F17.1°C 62.4°F16.9°C 99% 0.7 mph NNE1.1 kmh NNE 1.6 mph2.6 kmh 30.18 in1022.0 mb 0.00 in0.0 mm 0.00 in0.0 mm 0.00 in0.0 mm
08:19 AM 62.2°F16.8°C 62.2°F16.8°C 100% 1.6 mph NNE2.6 kmh NNE 2.7 mph4.3 kmh 30.18 in1022.0 mb 0.00 in0.0 mm 0.00 in0.0 mm 0.00 in0.0 mm
08:14 AM 61.7°F16.5°C 61.7°F16.5°C 100% 1.0 mph NE1.6 kmh NE 1.7 mph2.7 kmh 30.18 in1022.0 mb 0.00 in0.0 mm 0.00 in0.0 mm 0.00 in0.0 mm
08:09 AM 61.3°F16.3°C 61.3°F16.3°C 100% 1.1 mph NNE1.8 kmh NNE 2.1 mph3.4 kmh 30.18 in1022.0 mb 0.00 in0.0 mm 0.00 in0.0 mm 0.00 in0.0 mm
08:04 AM 60.5°F15.8°C 60.2°F15.7°C 99% 1.9 mph NNE3.1 kmh NNE 2.9 mph4.7 kmh 30.18 in1022.0 mb 0.00 in0.0 mm 0.00 in0.0 mm 0.00 in0.0 mm
07:59 AM 59.9°F15.5°C 59.9°F15.5°C 100% 2.4 mph N3.9 kmh N 3.4 mph5.5 kmh 30.18 in1022.0 mb 0.00 in0.0 mm 0.00 in0.0 mm 0.00 in0.0 mm
07:54 AM 59.5°F15.3°C 59.5°F15.3°C 100% 2.8 mph NNE4.5 kmh NNE 4.1 mph6.6 kmh 30.18 in1022.0 mb 0.00 in0.0 mm 0.00 in0.0 mm 0.00 in0.0 mm
07:49 AM 59.1°F15.1°C 59.1°F15.1°C 100% 2.6 mph N4.2 kmh N 3.8 mph6.1 kmh 30.18 in1022.0 mb 0.00 in0.0 mm 0.00 in0.0 mm 0.00 in0.0 mm
07:44 AM 58.6°F14.8°C 58.6°F14.8°C 100% 1.9 mph NNW3.1 kmh NNW 3.0 mph4.8 kmh 30.18 in1022.0 mb 0.00 in0.0 mm 0.00 in0.0 mm 0.00 in0.0 mm
07:39 AM 57.7°F14.3°C 57.7°F14.3°C 100% 0.6 mph NNW1.0 kmh NNW 1.1 mph1.8 kmh 30.18 in1022.0 mb 0.00 in0.0 mm 0.00 in0.0 mm 0.00 in0.0 mm
07:34 AM 57.0°F13.9°C 56.7°F13.7°C 99% 0.9 mph NNW1.4 kmh NNW 1.4 mph2.3 kmh 30.18 in1022.0 mb 0.00 in0.0 mm 0.00 in0.0 mm 0.00 in0.0 mm
07:29 AM 56.5°F13.6°C 56.2°F13.4°C 99% 2.2 mph NNE3.5 kmh NNE 2.9 mph4.7 kmh 30.18 in1022.0 mb 0.00 in0.0 mm 0.00 in0.0 mm 0.00 in0.0 mm
07:24 AM 56.1°F13.4°C 56.1°F13.4°C 100% 1.6 mph NNE2.6 kmh NNE 2.7 mph4.3 kmh 30.18 in1022.0 mb 0.00 in0.0 mm 0.00 in0.0 mm 0.00 in0.0 mm
07:19 AM 55.7°F13.2°C 55.4°F13.0°C 99% 2.0 mph NNE3.2 kmh NNE 2.6 mph4.2 kmh 30.18 in1022.0 mb 0.00 in0.0 mm 0.00 in0.0 mm 0.00 in0.0 mm
07:14 AM 55.5°F13.1°C 82.3°F27.9°C - 0.7 mph NE1.1 kmh NE 1.5 mph2.4 kmh 30.18 in1022.0 mb 0.00 in0.0 mm 0.00 in0.0 mm 0.00 in0.0 mm
07:09 AM 55.1°F12.8°C 55.1°F12.8°C 100% 1.2 mph NNE1.9 kmh NNE 2.0 mph3.2 kmh 30.18 in1022.0 mb 0.00 in0.0 mm 0.00 in0.0 mm 0.00 in0.0 mm
07:04 AM 54.7°F12.6°C 54.7°F12.6°C 100% 0.8 mph NNW1.3 kmh NNW 1.7 mph2.7 kmh 30.18 in1022.0 mb 0.00 in0.0 mm 0.00 in0.0 mm 0.00 in0.0 mm
06:59 AM 54.2°F12.3°C 53.9°F12.2°C 99% 0.1 mph N0.2 kmh N 0.6 mph1.0 kmh 30.18 in1022.0 mb 0.00 in0.0 mm 0.00 in0.0 mm 0.00 in0.0 mm
06:54 AM 53.7°F12.1°C 53.7°F12.1°C 100% 0.9 mph N1.4 kmh N 2.1 mph3.4 kmh 30.18 in1022.0 mb 0.00 in0.0 mm 0.00 in0.0 mm 0.00 in0.0 mm
06:49 AM 53.2°F11.8°C 53.2°F11.8°C 100% 2.0 mph N3.2 kmh N 2.3 mph3.7 kmh 30.17 in1021.7 mb 0.00 in0.0 mm 0.00 in0.0 mm 0.00 in0.0 mm
06:44 AM 52.5°F11.4°C 52.5°F11.4°C 100% 1.5 mph N2.4 kmh N 2.2 mph3.5 kmh 30.18 in1022.0 mb 0.00 in0.0 mm 0.00 in0.0 mm 0.00 in0.0 mm
06:39 AM 52.0°F11.1°C 52.0°F11.1°C 100% 2.0 mph N3.2 kmh N 2.6 mph4.2 kmh 30.17 in1021.7 mb 0.00 in0.0 mm 0.00 in0.0 mm 0.00 in0.0 mm
06:34 AM 51.5°F10.8°C 51.5°F10.8°C 100% 2.0 mph N3.2 kmh N 2.6 mph4.2 kmh 30.17 in1021.7 mb 0.00 in0.0 mm 0.00 in0.0 mm 0.00 in0.0 mm
06:29 AM 51.0°F10.6°C 77.1°F25.1°C - 2.0 mph N3.2 kmh N 2.5 mph4.0 kmh 30.17 in1021.7 mb 0.00 in0.0 mm 0.00 in0.0 mm 0.00 in0.0 mm
06:24 AM 50.7°F10.4°C 50.4°F10.2°C 99% 1.8 mph N2.9 kmh N 2.2 mph3.5 kmh 30.17 in1021.7 mb 0.00 in0.0 mm 0.00 in0.0 mm 0.00 in0.0 mm
06:19 AM 50.5°F10.3°C 50.5°F10.3°C 100% 1.5 mph N2.4 kmh N 2.1 mph3.4 kmh 30.17 in1021.7 mb 0.00 in0.0 mm 0.00 in0.0 mm 0.00 in0.0 mm
06:14 AM 50.2°F10.1°C 49.9°F9.9°C 99% 1.5 mph N2.4 kmh N 1.7 mph2.7 kmh 30.17 in1021.7 mb 0.00 in0.0 mm 0.00 in0.0 mm 0.00 in0.0 mm
06:09 AM 50.2°F10.1°C 50.2°F10.1°C 100% 2.0 mph N3.2 kmh N 2.5 mph4.0 kmh 30.17 in1021.7 mb 0.00 in0.0 mm 0.00 in0.0 mm 0.00 in0.0 mm
06:04 AM 50.0°F10.0°C 49.7°F9.8°C 99% 1.7 mph N2.7 kmh N 2.2 mph3.5 kmh 30.17 in1021.7 mb 0.00 in0.0 mm 0.00 in0.0 mm 0.00 in0.0 mm
05:59 AM 50.0°F10.0°C 50.0°F10.0°C 100% 0.9 mph N1.4 kmh N 1.4 mph2.3 kmh 30.17 in1021.7 mb 0.00 in0.0 mm 0.00 in0.0 mm 0.00 in0.0 mm
05:54 AM 49.8°F9.9°C 49.8°F9.9°C 100% 1.6 mph N2.6 kmh N 2.0 mph3.2 kmh 30.17 in1021.7 mb 0.00 in0.0 mm 0.00 in0.0 mm 0.00 in0.0 mm
05:49 AM 49.7°F9.8°C 49.7°F9.8°C 100% 1.5 mph N2.4 kmh N 1.9 mph3.1 kmh 30.17 in1021.7 mb 0.00 in0.0 mm 0.00 in0.0 mm 0.00 in0.0 mm
05:44 AM 49.4°F9.7°C 49.4°F9.7°C 100% 1.6 mph N2.6 kmh N 2.1 mph3.4 kmh 30.17 in1021.7 mb 0.00 in0.0 mm 0.00 in0.0 mm 0.00 in0.0 mm
05:39 AM 49.3°F9.6°C 49.3°F9.6°C 100% 1.1 mph N1.8 kmh N 1.5 mph2.4 kmh 30.17 in1021.7 mb 0.00 in0.0 mm 0.00 in0.0 mm 0.00 in0.0 mm
05:34 AM 49.2°F9.6°C 49.2°F9.6°C 100% Calm Calm 0.3 mph0.5 kmh 30.17 in1021.7 mb 0.00 in0.0 mm 0.00 in0.0 mm 0.00 in0.0 mm
05:29 AM 49.2°F9.6°C 49.2°F9.6°C 100% 0.9 mph N1.4 kmh N 1.4 mph2.3 kmh 30.17 in1021.7 mb 0.00 in0.0 mm 0.00 in0.0 mm 0.00 in0.0 mm
05:24 AM 49.1°F9.5°C 49.1°F9.5°C 100% 1.6 mph N2.6 kmh N 1.9 mph3.1 kmh 30.17 in1021.7 mb 0.00 in0.0 mm 0.00 in0.0 mm 0.00 in0.0 mm
05:19 AM 49.0°F9.4°C 49.0°F9.4°C 100% 1.0 mph N1.6 kmh N 1.4 mph2.3 kmh 30.17 in1021.7 mb 0.00 in0.0 mm 0.00 in0.0 mm 0.00 in0.0 mm
05:14 AM 48.9°F9.4°C 48.9°F9.4°C 100% 0.5 mph N0.8 kmh N 1.3 mph2.1 kmh 30.17 in1021.7 mb 0.00 in0.0 mm 0.00 in0.0 mm 0.00 in0.0 mm
05:09 AM 48.8°F9.3°C 48.8°F9.3°C 100% 1.3 mph N2.1 kmh N 1.5 mph2.4 kmh 30.17 in1021.7 mb 0.00 in0.0 mm 0.00 in0.0 mm 0.00 in0.0 mm
05:04 AM 48.8°F9.3°C 48.8°F9.3°C 100% 0.9 mph N1.4 kmh N 1.2 mph1.9 kmh 30.17 in1021.7 mb 0.00 in0.0 mm 0.00 in0.0 mm 0.00 in0.0 mm
04:59 AM 48.7°F9.3°C 48.7°F9.3°C 100% 1.3 mph N2.1 kmh N 1.7 mph2.7 kmh 30.17 in1021.7 mb 0.00 in0.0 mm 0.00 in0.0 mm 0.00 in0.0 mm
04:54 AM 48.7°F9.3°C 48.7°F9.3°C 100% 1.5 mph N2.4 kmh N 1.8 mph2.9 kmh 30.17 in1021.7 mb 0.00 in0.0 mm 0.00 in0.0 mm 0.00 in0.0 mm
04:49 AM 48.7°F9.3°C 48.7°F9.3°C 100% 1.4 mph N2.3 kmh N 1.8 mph2.9 kmh 30.17 in1021.7 mb 0.00 in0.0 mm 0.00 in0.0 mm 0.00 in0.0 mm
04:44 AM 49.0°F9.4°C 49.0°F9.4°C 100% 1.5 mph N2.4 kmh N 1.7 mph2.7 kmh 30.17 in1021.7 mb 0.00 in0.0 mm 0.00 in0.0 mm 0.00 in0.0 mm
04:39 AM 49.1°F9.5°C 49.1°F9.5°C 100% 2.1 mph N3.4 kmh N 2.4 mph3.9 kmh 30.17 in1021.7 mb 0.00 in0.0 mm 0.00 in0.0 mm 0.00 in0.0 mm
04:34 AM 49.2°F9.6°C 49.2°F9.6°C 100% 1.6 mph N2.6 kmh N 2.0 mph3.2 kmh 30.17 in1021.7 mb 0.00 in0.0 mm 0.00 in0.0 mm 0.00 in0.0 mm
04:29 AM 49.2°F9.6°C 49.2°F9.6°C 100% 1.6 mph N2.6 kmh N 1.9 mph3.1 kmh 30.17 in1021.7 mb 0.00 in0.0 mm 0.00 in0.0 mm 0.00 in0.0 mm
04:24 AM 49.2°F9.6°C 49.2°F9.6°C 100% 1.7 mph N2.7 kmh N 2.0 mph3.2 kmh 30.17 in1021.7 mb 0.00 in0.0 mm 0.00 in0.0 mm 0.00 in0.0 mm
04:19 AM 49.0°F9.4°C 74.4°F23.6°C - 1.8 mph N2.9 kmh N 2.1 mph3.4 kmh 30.17 in1021.7 mb 0.00 in0.0 mm 0.00 in0.0 mm 0.00 in0.0 mm
04:14 AM 49.0°F9.4°C 49.0°F9.4°C 100% 2.4 mph N3.9 kmh N 2.9 mph4.7 kmh 30.17 in1021.7 mb 0.00 in0.0 mm 0.00 in0.0 mm 0.00 in0.0 mm
04:09 AM 49.1°F9.5°C 49.1°F9.5°C 100% 1.6 mph N2.6 kmh N 1.9 mph3.1 kmh 30.17 in1021.7 mb 0.00 in0.0 mm 0.00 in0.0 mm 0.00 in0.0 mm
04:04 AM 49.2°F9.6°C 49.2°F9.6°C 100% 1.9 mph N3.1 kmh N 2.6 mph4.2 kmh 30.17 in1021.7 mb 0.00 in0.0 mm 0.00 in0.0 mm 0.00 in0.0 mm
03:59 AM 49.2°F9.6°C 49.2°F9.6°C 100% 1.5 mph N2.4 kmh N 1.9 mph3.1 kmh 30.17 in1021.7 mb 0.00 in0.0 mm 0.00 in0.0 mm 0.00 in0.0 mm
03:54 AM 49.1°F9.5°C 49.1°F9.5°C 100% 1.3 mph N2.1 kmh N 1.7 mph2.7 kmh 30.17 in1021.7 mb 0.00 in0.0 mm 0.00 in0.0 mm 0.00 in0.0 mm
03:49 AM 49.1°F9.5°C 49.1°F9.5°C 100% 1.5 mph N2.4 kmh N 1.7 mph2.7 kmh 30.17 in1021.7 mb 0.00 in0.0 mm 0.00 in0.0 mm 0.00 in0.0 mm
03:44 AM 49.3°F9.6°C 49.3°F9.6°C 100% 1.2 mph N1.9 kmh N 1.4 mph2.3 kmh 30.17 in1021.7 mb 0.00 in0.0 mm 0.00 in0.0 mm 0.00 in0.0 mm
03:39 AM 49.6°F9.8°C 49.6°F9.8°C 100% 0.8 mph N1.3 kmh N 1.3 mph2.1 kmh 30.17 in1021.7 mb 0.00 in0.0 mm 0.00 in0.0 mm 0.00 in0.0 mm
03:34 AM 49.7°F9.8°C 49.7°F9.8°C 100% 0.7 mph N1.1 kmh N 1.2 mph1.9 kmh 30.17 in1021.7 mb 0.00 in0.0 mm 0.00 in0.0 mm 0.00 in0.0 mm
03:29 AM 49.8°F9.9°C 49.8°F9.9°C 100% Calm Calm -- 30.17 in1021.7 mb 0.00 in0.0 mm 0.00 in0.0 mm 0.00 in0.0 mm
03:24 AM 50.0°F10.0°C 50.0°F10.0°C 100% Calm Calm -- 30.18 in1022.0 mb 0.00 in0.0 mm 0.00 in0.0 mm 0.00 in0.0 mm
03:19 AM 49.9°F9.9°C 52.5°F11.4°C - Calm Calm -- 30.18 in1022.0 mb 0.00 in0.0 mm 0.00 in0.0 mm 0.00 in0.0 mm
03:14 AM 50.0°F10.0°C 50.0°F10.0°C 100% Calm Calm -- 30.18 in1022.0 mb 0.00 in0.0 mm 0.00 in0.0 mm 0.00 in0.0 mm
03:09 AM 50.1°F10.1°C 50.1°F10.1°C 100% Calm Calm -- 30.18 in1022.0 mb 0.00 in0.0 mm 0.00 in0.0 mm 0.00 in0.0 mm
03:04 AM 50.2°F10.1°C 49.9°F9.9°C 99% 0.1 mph N0.2 kmh N 0.3 mph0.5 kmh 30.18 in1022.0 mb 0.00 in0.0 mm 0.00 in0.0 mm 0.00 in0.0 mm
02:59 AM 50.2°F10.1°C 50.2°F10.1°C 100% Calm Calm -- 30.18 in1022.0 mb 0.00 in0.0 mm 0.00 in0.0 mm 0.00 in0.0 mm
02:54 AM 50.2°F10.1°C 50.2°F10.1°C 100% 0.7 mph N1.1 kmh N 1.2 mph1.9 kmh 30.18 in1022.0 mb 0.00 in0.0 mm 0.00 in0.0 mm 0.00 in0.0 mm
02:49 AM 50.1°F10.1°C 50.1°F10.1°C 100% 1.1 mph N1.8 kmh N 1.5 mph2.4 kmh 30.18 in1022.0 mb 0.00 in0.0 mm 0.00 in0.0 mm 0.00 in0.0 mm
02:44 AM 50.0°F10.0°C 50.0°F10.0°C 100% 1.6 mph N2.6 kmh N 1.9 mph3.1 kmh 30.19 in1022.4 mb 0.00 in0.0 mm 0.00 in0.0 mm 0.00 in0.0 mm
02:39 AM 50.0°F10.0°C 74.7°F23.7°C - 2.2 mph N3.5 kmh N 2.6 mph4.2 kmh 30.18 in1022.0 mb 0.00 in0.0 mm 0.00 in0.0 mm 0.00 in0.0 mm
02:34 AM 50.1°F10.1°C 49.8°F9.9°C 99% 1.8 mph N2.9 kmh N 2.0 mph3.2 kmh 30.18 in1022.0 mb 0.00 in0.0 mm 0.00 in0.0 mm 0.00 in0.0 mm
02:29 AM 50.2°F10.1°C 49.9°F9.9°C 99% 0.4 mph N0.6 kmh N 0.9 mph1.4 kmh 30.19 in1022.4 mb 0.00 in0.0 mm 0.00 in0.0 mm 0.00 in0.0 mm
02:24 AM 50.3°F10.2°C 50.3°F10.2°C 100% Calm Calm -- 30.19 in1022.4 mb 0.00 in0.0 mm 0.00 in0.0 mm 0.00 in0.0 mm
02:19 AM 50.5°F10.3°C 50.2°F10.1°C 99% 0.8 mph N1.3 kmh N 1.4 mph2.3 kmh 30.19 in1022.4 mb 0.00 in0.0 mm 0.00 in0.0 mm 0.00 in0.0 mm
02:14 AM 50.7°F10.4°C 50.7°F10.4°C 100% 0.5 mph N0.8 kmh N 0.9 mph1.4 kmh 30.19 in1022.4 mb 0.00 in0.0 mm 0.00 in0.0 mm 0.00 in0.0 mm
02:09 AM 50.7°F10.4°C 50.4°F10.2°C 99% 0.5 mph N0.8 kmh N 0.7 mph1.1 kmh 30.19 in1022.4 mb 0.00 in0.0 mm 0.00 in0.0 mm 0.00 in0.0 mm
02:04 AM 50.7°F10.4°C 50.4°F10.2°C 99% 1.2 mph N1.9 kmh N 1.6 mph2.6 kmh 30.18 in1022.0 mb 0.00 in0.0 mm 0.00 in0.0 mm 0.00 in0.0 mm
01:59 AM 50.6°F10.3°C 50.3°F10.2°C 99% 0.2 mph N0.3 kmh N 0.6 mph1.0 kmh 30.19 in1022.4 mb 0.00 in0.0 mm 0.00 in0.0 mm 0.00 in0.0 mm
01:54 AM 50.6°F10.3°C 50.6°F10.3°C 100% 1.2 mph N1.9 kmh N 1.5 mph2.4 kmh 30.19 in1022.4 mb 0.00 in0.0 mm 0.00 in0.0 mm 0.00 in0.0 mm
01:49 AM 50.8°F10.4°C 50.8°F10.4°C 100% 0.9 mph N1.4 kmh N 1.4 mph2.3 kmh 30.19 in1022.4 mb 0.00 in0.0 mm 0.00 in0.0 mm 0.00 in0.0 mm
01:44 AM 51.0°F10.6°C 50.7°F10.4°C 99% 0.6 mph N1.0 kmh N 1.3 mph2.1 kmh 30.19 in1022.4 mb 0.00 in0.0 mm 0.00 in0.0 mm 0.00 in0.0 mm
01:39 AM 51.1°F10.6°C 51.1°F10.6°C 100% 1.2 mph N1.9 kmh N 1.7 mph2.7 kmh 30.19 in1022.4 mb 0.00 in0.0 mm 0.00 in0.0 mm 0.00 in0.0 mm
01:34 AM 51.3°F10.7°C 51.3°F10.7°C 100% Calm Calm -- 30.18 in1022.0 mb 0.00 in0.0 mm 0.00 in0.0 mm 0.00 in0.0 mm
01:29 AM 51.3°F10.7°C 51.3°F10.7°C 100% 0.8 mph N1.3 kmh N 1.3 mph2.1 kmh 30.19 in1022.4 mb 0.00 in0.0 mm 0.00 in0.0 mm 0.00 in0.0 mm
01:24 AM 51.2°F10.7°C 51.2°F10.7°C 100% 1.4 mph N2.3 kmh N 1.8 mph2.9 kmh 30.19 in1022.4 mb 0.00 in0.0 mm 0.00 in0.0 mm 0.00 in0.0 mm
01:19 AM 51.2°F10.7°C 51.2°F10.7°C 100% 2.0 mph N3.2 kmh N 2.4 mph3.9 kmh 30.18 in1022.0 mb 0.00 in0.0 mm 0.00 in0.0 mm 0.00 in0.0 mm
01:14 AM 51.2°F10.7°C 51.2°F10.7°C 100% 1.5 mph N2.4 kmh N 1.7 mph2.7 kmh 30.18 in1022.0 mb 0.00 in0.0 mm 0.00 in0.0 mm 0.00 in0.0 mm
01:09 AM 51.4°F10.8°C 51.4°F10.8°C 100% 0.3 mph N0.5 kmh N 1.2 mph1.9 kmh 30.18 in1022.0 mb 0.00 in0.0 mm 0.00 in0.0 mm 0.00 in0.0 mm
01:04 AM 51.6°F10.9°C 51.6°F10.9°C 100% 0.3 mph N0.5 kmh N 0.7 mph1.1 kmh 30.18 in1022.0 mb 0.00 in0.0 mm 0.00 in0.0 mm 0.00 in0.0 mm
12:59 AM 51.7°F10.9°C 51.7°F10.9°C 100% 1.1 mph N1.8 kmh N 1.4 mph2.3 kmh 30.19 in1022.4 mb 0.00 in0.0 mm 0.00 in0.0 mm 0.00 in0.0 mm
12:54 AM 52.0°F11.1°C 52.0°F11.1°C 100% 0.9 mph N1.4 kmh N 1.3 mph2.1 kmh 30.19 in1022.4 mb 0.00 in0.0 mm 0.00 in0.0 mm 0.00 in0.0 mm
12:49 AM 52.2°F11.2°C 51.9°F11.1°C 99% 0.8 mph N1.3 kmh N 1.4 mph2.3 kmh 30.19 in1022.4 mb 0.00 in0.0 mm 0.00 in0.0 mm 0.00 in0.0 mm
12:44 AM 52.3°F11.3°C 52.3°F11.3°C 100% 0.4 mph N0.6 kmh N 1.1 mph1.8 kmh 30.19 in1022.4 mb 0.00 in0.0 mm 0.00 in0.0 mm 0.00 in0.0 mm
12:39 AM 52.5°F11.4°C 52.5°F11.4°C 100% Calm Calm -- 30.19 in1022.4 mb 0.00 in0.0 mm 0.00 in0.0 mm 0.00 in0.0 mm
12:34 AM 52.6°F11.4°C 52.3°F11.3°C 99% Calm Calm -- 30.19 in1022.4 mb 0.00 in0.0 mm 0.00 in0.0 mm 0.00 in0.0 mm
12:29 AM 52.6°F11.4°C 52.6°F11.4°C 100% 0.3 mph N0.5 kmh N 0.7 mph1.1 kmh 30.19 in1022.4 mb 0.00 in0.0 mm 0.00 in0.0 mm 0.00 in0.0 mm
12:24 AM 52.7°F11.5°C 52.7°F11.5°C 100% Calm Calm -- 30.19 in1022.4 mb 0.00 in0.0 mm 0.00 in0.0 mm 0.00 in0.0 mm
12:19 AM 52.7°F11.5°C 52.7°F11.5°C 100% Calm Calm -- 30.20 in1022.7 mb 0.00 in0.0 mm 0.00 in0.0 mm 0.00 in0.0 mm
12:14 AM 52.7°F11.5°C 52.7°F11.5°C 100% Calm Calm -- 30.20 in1022.7 mb 0.00 in0.0 mm 0.00 in0.0 mm 0.00 in0.0 mm
12:09 AM 52.9°F11.6°C 52.9°F11.6°C 100% Calm Calm -- 30.20 in1022.7 mb 0.00 in0.0 mm 0.00 in0.0 mm 0.00 in0.0 mm
12:04 AM 53.2°F11.8°C 53.2°F11.8°C 100% Calm Calm -- 30.20 in1022.7 mb 0.00 in0.0 mm 0.00 in0.0 mm 0.00 in0.0 mm